createdAt,value
2018-09-03T00:00:23.785Z,99.90
2018-09-03T00:02:55.097Z,99.90
2018-09-03T00:05:25.684Z,99.90
2018-09-03T00:07:56.246Z,99.90
2018-09-03T00:10:26.707Z,99.90
2018-09-03T00:12:57.259Z,99.90
2018-09-03T00:15:27.805Z,99.90
2018-09-03T00:17:58.474Z,99.90
2018-09-03T00:20:29.170Z,99.90
2018-09-03T00:22:59.801Z,99.90
2018-09-03T00:25:30.525Z,99.90
2018-09-03T00:28:00.933Z,99.90
2018-09-03T00:30:31.228Z,99.90
2018-09-03T00:33:06.836Z,99.90
2018-09-03T00:35:42.261Z,99.90
2018-09-03T00:38:17.811Z,99.90
2018-09-03T00:40:53.407Z,99.90
2018-09-03T00:43:28.805Z,99.90
2018-09-03T00:46:04.363Z,99.90
2018-09-03T00:48:34.995Z,99.90
2018-09-03T00:51:05.736Z,99.90
2018-09-03T00:53:36.427Z,99.90
2018-09-03T00:56:07.239Z,99.90
2018-09-03T00:58:37.976Z,99.90
2018-09-03T01:01:08.344Z,99.90
2018-09-03T01:03:38.983Z,99.90
2018-09-03T01:06:09.361Z,99.90
2018-09-03T01:08:39.703Z,99.90
2018-09-03T01:11:10.378Z,99.90
2018-09-03T01:13:40.895Z,99.90
2018-09-03T01:16:11.337Z,99.90
2018-09-03T01:18:43.276Z,99.90
2018-09-03T01:21:13.910Z,99.90
2018-09-03T01:23:44.223Z,99.90
2018-09-03T01:26:14.760Z,99.90
2018-09-03T01:28:45.150Z,99.90
2018-09-03T01:31:18.711Z,99.90
2018-09-03T01:33:52.248Z,99.90
2018-09-03T01:36:23.082Z,99.90
2018-09-03T01:38:53.652Z,99.90
2018-09-03T01:41:23.854Z,99.90
2018-09-03T01:43:54.248Z,99.90
2018-09-03T01:46:24.843Z,99.90
2018-09-03T01:48:55.551Z,99.90
2018-09-03T01:51:26.122Z,99.90
2018-09-03T01:53:56.612Z,99.90
2018-09-03T01:56:26.941Z,99.90
2018-09-03T01:58:57.420Z,99.90
2018-09-03T02:01:27.893Z,99.90
2018-09-03T02:03:58.412Z,99.90
2018-09-03T02:06:28.969Z,99.90
2018-09-03T02:09:09.641Z,99.90
2018-09-03T02:11:40.578Z,99.90
2018-09-03T02:14:11.077Z,99.90
2018-09-03T02:16:41.501Z,99.90
2018-09-03T02:19:11.911Z,99.90
2018-09-03T02:21:42.257Z,99.90
2018-09-03T02:24:12.589Z,99.90
2018-09-03T02:26:42.972Z,99.90
2018-09-03T02:29:13.422Z,99.90
2018-09-03T02:31:46.802Z,99.90
2018-09-03T02:34:17.362Z,99.90
2018-09-03T02:36:47.702Z,99.90
2018-09-03T02:39:18.091Z,99.90
2018-09-03T02:41:48.378Z,99.90
2018-09-03T02:44:18.873Z,99.90
2018-09-03T02:46:49.615Z,99.90
2018-09-03T02:49:19.935Z,99.90
2018-09-03T02:51:50.246Z,99.90
2018-09-03T02:54:20.701Z,99.90
2018-09-03T02:56:51.091Z,99.90
2018-09-03T02:59:21.607Z,99.90
2018-09-03T03:01:52.216Z,99.90
2018-09-03T03:04:22.700Z,99.90
2018-09-03T03:06:53.133Z,99.90
2018-09-03T03:09:23.636Z,99.90
2018-09-03T03:11:54.297Z,99.90
2018-09-03T03:14:24.798Z,99.90
2018-09-03T03:16:55.671Z,99.90
2018-09-03T03:19:26.200Z,99.90
2018-09-03T03:21:56.923Z,99.90
2018-09-03T03:24:27.271Z,99.90
2018-09-03T03:26:57.802Z,99.90
2018-09-03T03:29:28.289Z,99.90
2018-09-03T03:31:58.781Z,99.90
2018-09-03T03:34:29.246Z,99.90
2018-09-03T03:36:59.802Z,99.90
2018-09-03T03:39:30.300Z,99.90
2018-09-03T03:42:00.614Z,99.90
2018-09-03T03:44:30.906Z,99.90
2018-09-03T03:47:01.416Z,99.90
2018-09-03T03:49:32.048Z,99.90
2018-09-03T03:52:02.605Z,99.90
2018-09-03T03:54:33.163Z,99.90
2018-09-03T03:57:03.831Z,99.90
2018-09-03T03:59:34.220Z,99.90
2018-09-03T04:02:04.959Z,99.90
2018-09-03T04:04:35.306Z,99.90
2018-09-03T04:07:05.745Z,99.90
2018-09-03T04:09:36.155Z,99.90
2018-09-03T04:12:06.722Z,99.90
2018-09-03T04:14:37.031Z,99.90
2018-09-03T04:17:07.947Z,99.90
2018-09-03T04:19:38.470Z,99.90
2018-09-03T04:22:08.765Z,99.90
2018-09-03T04:24:39.246Z,99.90
2018-09-03T04:27:09.776Z,99.90
2018-09-03T04:29:40.080Z,99.90
2018-09-03T04:32:10.581Z,99.90
2018-09-03T04:34:41.026Z,99.90
2018-09-03T04:37:11.655Z,99.90
2018-09-03T04:39:42.321Z,99.90
2018-09-03T04:42:12.577Z,99.90
2018-09-03T04:44:42.996Z,99.90
2018-09-03T04:47:13.584Z,99.90
2018-09-03T04:49:44.230Z,99.90
2018-09-03T04:52:14.524Z,99.90
2018-09-03T04:54:45.144Z,99.90
2018-09-03T04:57:15.352Z,99.90
2018-09-03T04:59:46.014Z,99.90
2018-09-03T05:02:17.040Z,99.90
2018-09-03T05:04:47.415Z,99.90
2018-09-03T05:07:17.936Z,99.90
2018-09-03T05:09:48.364Z,99.90
2018-09-03T05:12:18.689Z,99.90
2018-09-03T05:14:49.242Z,99.90
2018-09-03T05:17:19.722Z,99.90
2018-09-03T05:19:50.198Z,99.90
2018-09-03T05:22:20.888Z,99.90
2018-09-03T05:24:51.329Z,99.90
2018-09-03T05:27:21.605Z,99.90
2018-09-03T05:29:52.211Z,99.90
2018-09-03T05:32:22.803Z,99.90
2018-09-03T05:34:53.280Z,99.90
2018-09-03T05:37:23.857Z,99.90
2018-09-03T05:39:54.302Z,99.90
2018-09-03T05:42:24.528Z,99.90
2018-09-03T05:44:54.956Z,99.90
2018-09-03T05:47:25.447Z,99.90
2018-09-03T05:49:56.013Z,99.90
2018-09-03T05:52:26.566Z,99.90
2018-09-03T05:54:57.080Z,99.90
2018-09-03T05:57:27.672Z,99.90
2018-09-03T05:59:58.066Z,99.90
2018-09-03T06:02:28.511Z,99.90
2018-09-03T06:04:59.206Z,99.90
2018-09-03T06:07:29.696Z,99.90
2018-09-03T06:10:00.081Z,99.90
2018-09-03T06:12:30.579Z,99.90
2018-09-03T06:15:01.238Z,99.90
2018-09-03T06:17:31.665Z,99.90
2018-09-03T06:20:02.035Z,99.90
2018-09-03T06:22:32.693Z,99.90
2018-09-03T06:25:03.204Z,99.90
2018-09-03T06:27:33.504Z,99.90
2018-09-03T06:30:03.976Z,99.90
2018-09-03T06:32:34.265Z,99.90
2018-09-03T06:35:04.876Z,99.90
2018-09-03T06:37:35.437Z,99.90
2018-09-03T06:40:05.982Z,99.90
2018-09-03T06:42:36.326Z,99.90
2018-09-03T06:45:06.786Z,99.90
2018-09-03T06:47:37.330Z,99.90
2018-09-03T06:50:07.905Z,99.90
2018-09-03T06:52:38.355Z,99.90
2018-09-03T06:55:08.955Z,99.90
2018-09-03T06:57:39.664Z,99.90
2018-09-03T07:00:10.017Z,99.90
2018-09-03T07:02:41.880Z,99.90
2018-09-03T07:05:12.716Z,99.90
2018-09-03T07:07:43.327Z,99.90
2018-09-03T07:10:13.870Z,99.90
2018-09-03T07:12:44.030Z,99.90
2018-09-03T07:15:14.519Z,99.90
2018-09-03T07:17:44.777Z,99.90
2018-09-03T07:20:15.165Z,99.90
2018-09-03T07:22:45.529Z,99.90
2018-09-03T07:25:15.742Z,99.90
2018-09-03T07:27:46.287Z,99.90
2018-09-03T07:30:16.674Z,99.90
2018-09-03T07:32:47.060Z,99.90
2018-09-03T07:35:17.446Z,99.90
2018-09-03T07:37:47.729Z,99.90
2018-09-03T07:40:18.326Z,99.90
2018-09-03T07:42:48.679Z,99.90
2018-09-03T07:45:19.163Z,99.90
2018-09-03T07:47:49.637Z,99.90
2018-09-03T07:50:19.874Z,99.90
2018-09-03T07:52:50.238Z,99.90
2018-09-03T07:55:20.738Z,99.90
2018-09-03T07:57:51.243Z,99.90
2018-09-03T08:00:21.578Z,99.90
2018-09-03T08:02:58.361Z,99.90
2018-09-03T08:05:29.362Z,99.90
2018-09-03T08:07:59.879Z,99.90
2018-09-03T08:10:30.461Z,99.90
2018-09-03T08:13:01.080Z,99.90
2018-09-03T08:15:31.355Z,99.90
2018-09-03T08:18:01.809Z,99.90
2018-09-03T08:20:32.686Z,99.90
2018-09-03T08:23:03.167Z,99.90
2018-09-03T08:25:33.742Z,99.90
2018-09-03T08:28:04.377Z,99.90
2018-09-03T08:30:34.702Z,99.90
2018-09-03T08:33:05.178Z,99.90
2018-09-03T08:35:35.720Z,99.90
2018-09-03T08:38:06.463Z,99.90
2018-09-03T08:40:37.029Z,99.90
2018-09-03T08:43:07.747Z,99.90
2018-09-03T08:45:38.421Z,99.90
2018-09-03T08:48:09.010Z,99.90
2018-09-03T08:50:39.697Z,99.90
2018-09-03T08:53:09.927Z,99.90
2018-09-03T08:55:40.909Z,99.90
2018-09-03T08:58:11.343Z,99.90
2018-09-03T09:00:41.873Z,99.90
2018-09-03T09:03:17.359Z,99.90
2018-09-03T09:05:47.854Z,99.90
2018-09-03T09:08:18.171Z,99.90
2018-09-03T09:10:48.796Z,99.90
2018-09-03T09:13:19.842Z,99.90
2018-09-03T09:15:50.452Z,99.90
2018-09-03T09:18:20.835Z,99.90
2018-09-03T09:20:51.367Z,99.90
2018-09-03T09:23:21.828Z,99.90
2018-09-03T09:25:52.288Z,99.90
2018-09-03T09:28:22.786Z,99.90
2018-09-03T09:30:53.697Z,99.90
2018-09-03T09:33:24.242Z,99.90
2018-09-03T09:35:55.047Z,99.90
2018-09-03T09:38:25.645Z,99.90
2018-09-03T09:40:56.059Z,99.90
2018-09-03T09:43:26.606Z,99.90
2018-09-03T09:45:57.128Z,99.90
2018-09-03T09:48:27.632Z,99.90
2018-09-03T09:50:58.212Z,99.90
2018-09-03T09:53:28.810Z,99.90
2018-09-03T09:55:59.327Z,99.90
2018-09-03T09:58:30.152Z,99.90
2018-09-03T10:01:05.967Z,99.90
2018-09-03T10:03:36.991Z,99.90
2018-09-03T10:06:07.371Z,99.90
2018-09-03T10:08:42.886Z,99.90
2018-09-03T10:11:13.547Z,99.90
2018-09-03T10:13:44.111Z,99.90
2018-09-03T10:16:14.346Z,99.90
2018-09-03T10:18:44.965Z,99.90
2018-09-03T10:21:15.456Z,99.90
2018-09-03T10:23:48.632Z,99.90
2018-09-03T10:26:22.098Z,99.90
2018-09-03T10:28:52.871Z,99.90
2018-09-03T10:31:26.690Z,99.90
2018-09-03T10:33:57.435Z,99.90
2018-09-03T10:36:30.079Z,99.90
2018-09-03T10:39:02.148Z,99.90
2018-09-03T10:41:33.100Z,99.90
2018-09-03T10:44:04.006Z,99.90
2018-09-03T10:46:35.624Z,99.90
2018-09-03T10:49:09.749Z,99.90
2018-09-03T10:51:44.382Z,99.90
2018-09-03T10:54:15.690Z,99.90
2018-09-03T10:56:49.692Z,99.90
2018-09-03T10:59:20.127Z,99.90
2018-09-03T11:01:50.820Z,99.90
2018-09-03T11:04:22.107Z,99.90
2018-09-03T11:06:55.919Z,99.90
2018-09-03T11:09:28.482Z,99.90
2018-09-03T11:12:01.183Z,99.90
2018-09-03T11:14:31.812Z,99.90
2018-09-03T11:17:03.012Z,99.90
2018-09-03T11:19:41.562Z,99.90
2018-09-03T11:22:12.383Z,99.90
2018-09-03T11:24:44.766Z,99.90
2018-09-03T11:27:16.562Z,99.90
2018-09-03T11:29:51.817Z,99.90
2018-09-03T11:32:23.614Z,99.90
2018-09-03T11:34:54.077Z,99.90
2018-09-03T11:37:26.374Z,99.90
2018-09-03T11:39:58.887Z,99.90
2018-09-03T11:42:29.467Z,99.90
2018-09-03T11:45:02.887Z,99.90
2018-09-03T11:47:36.199Z,99.90
2018-09-03T11:50:08.700Z,99.90
2018-09-03T11:52:40.165Z,99.90
2018-09-03T11:55:13.959Z,99.90
2018-09-03T11:57:44.232Z,99.90
2018-09-03T12:00:28.566Z,99.90
2018-09-03T12:03:03.106Z,99.90
2018-09-03T12:05:33.672Z,99.90
2018-09-03T12:08:04.197Z,99.90
2018-09-03T12:10:34.711Z,99.90
2018-09-03T12:13:05.307Z,99.90
2018-09-03T12:15:40.855Z,99.90
2018-09-03T12:18:11.364Z,99.90
2018-09-03T12:20:41.919Z,99.90
2018-09-03T12:23:12.428Z,99.90
2018-09-03T12:25:42.938Z,99.90
2018-09-03T12:28:13.317Z,99.90
2018-09-03T12:30:43.707Z,95.30
2018-09-03T12:33:14.340Z,91.40
2018-09-03T12:35:44.570Z,91.30
2018-09-03T12:38:14.889Z,91.20
2018-09-03T12:40:45.140Z,92.00
2018-09-03T12:43:15.814Z,93.80
2018-09-03T12:45:51.339Z,93.50
2018-09-03T12:48:22.110Z,93.10
2018-09-03T12:50:52.571Z,95.90
2018-09-03T12:53:23.113Z,97.80
2018-09-03T12:55:53.419Z,98.70
2018-09-03T12:58:23.820Z,99.90
2018-09-03T13:00:54.431Z,99.90
2018-09-03T13:03:24.933Z,99.90
2018-09-03T13:05:55.637Z,99.90
2018-09-03T13:08:26.593Z,99.90
2018-09-03T13:10:57.125Z,99.90
2018-09-03T13:13:27.459Z,99.90
2018-09-03T13:15:57.883Z,99.90
2018-09-03T13:18:28.179Z,99.90
2018-09-03T13:21:05.423Z,99.90
2018-09-03T13:23:36.034Z,99.90
2018-09-03T13:26:06.543Z,99.50
2018-09-03T13:28:36.955Z,95.70
2018-09-03T13:31:07.482Z,93.00
2018-09-03T13:33:38.104Z,90.90
2018-09-03T13:36:08.686Z,90.50
2018-09-03T13:38:39.260Z,91.90
2018-09-03T13:41:09.526Z,94.00
2018-09-03T13:43:40.122Z,96.20
2018-09-03T13:46:10.591Z,97.50
2018-09-03T13:48:41.108Z,98.00
2018-09-03T13:51:11.655Z,98.10
2018-09-03T13:53:42.342Z,98.90
2018-09-03T13:56:18.328Z,99.90
2018-09-03T13:58:49.022Z,99.90
2018-09-03T14:01:19.770Z,99.90
2018-09-03T14:03:50.878Z,99.90
2018-09-03T14:06:21.330Z,99.90
2018-09-03T14:08:51.590Z,99.90
2018-09-03T14:11:22.310Z,99.90
2018-09-03T14:13:53.063Z,94.50
2018-09-03T14:16:23.732Z,83.20
2018-09-03T14:18:54.505Z,74.30
2018-09-03T14:21:24.818Z,65.60
2018-09-03T14:23:55.327Z,61.00
2018-09-03T14:26:25.768Z,56.60
2018-09-03T14:28:56.119Z,55.10
2018-09-03T14:31:26.463Z,55.30
2018-09-03T14:33:56.732Z,53.90
2018-09-03T14:36:27.100Z,51.20
2018-09-03T14:38:57.500Z,50.90
2018-09-03T14:41:28.133Z,51.70
2018-09-03T14:43:58.560Z,51.30
2018-09-03T14:46:29.106Z,49.50
2018-09-03T14:48:59.379Z,50.30
2018-09-03T14:51:30.071Z,53.10
2018-09-03T14:54:00.502Z,51.10
2018-09-03T14:56:31.137Z,50.30
2018-09-03T14:59:01.527Z,51.40
2018-09-03T15:01:32.316Z,52.00
2018-09-03T15:04:02.632Z,53.10
2018-09-03T15:06:32.961Z,55.20
2018-09-03T15:09:03.323Z,56.60
2018-09-03T15:11:33.881Z,58.50
2018-09-03T15:14:04.404Z,58.90
2018-09-03T15:16:35.347Z,57.70
2018-09-03T15:19:06.501Z,56.50
2018-09-03T15:21:36.925Z,57.30
2018-09-03T15:24:07.328Z,59.10
2018-09-03T15:26:37.921Z,61.30
2018-09-03T15:29:08.464Z,62.90
2018-09-03T15:31:39.200Z,64.50
2018-09-03T15:34:10.309Z,67.60
2018-09-03T15:36:41.001Z,72.60
2018-09-03T15:39:12.704Z,75.20
2018-09-03T15:41:43.413Z,79.00
2018-09-03T15:44:14.038Z,79.20
2018-09-03T15:46:44.523Z,81.90
2018-09-03T15:49:14.769Z,84.80
2018-09-03T15:51:45.263Z,90.10
2018-09-03T15:54:15.752Z,90.70
2018-09-03T15:56:46.087Z,91.00
2018-09-03T15:59:16.368Z,92.40
2018-09-03T16:01:46.859Z,91.30
2018-09-03T16:04:17.469Z,91.10
2018-09-03T16:06:48.031Z,92.30
2018-09-03T16:09:18.719Z,93.40
2018-09-03T16:11:49.359Z,94.20
2018-09-03T16:14:19.767Z,95.00
2018-09-03T16:16:50.461Z,95.60
2018-09-03T16:19:20.681Z,96.20
2018-09-03T16:21:51.223Z,96.90
2018-09-03T16:24:21.766Z,98.00
2018-09-03T16:26:52.158Z,99.50
2018-09-03T16:29:22.914Z,99.90
2018-09-03T16:31:53.435Z,99.90
2018-09-03T16:34:25.779Z,99.90
2018-09-03T16:36:56.443Z,99.90
2018-09-03T16:39:32.406Z,99.90
2018-09-03T16:42:02.975Z,99.90
2018-09-03T16:44:33.594Z,99.90
2018-09-03T16:47:05.092Z,99.90
2018-09-03T16:49:35.577Z,99.90
2018-09-03T16:52:05.878Z,99.90
2018-09-03T16:54:36.573Z,99.90
2018-09-03T16:57:07.134Z,99.90
2018-09-03T16:59:37.709Z,99.90
2018-09-03T17:02:08.456Z,99.90
2018-09-03T17:04:38.891Z,99.90
2018-09-03T17:07:09.516Z,99.90
2018-09-03T17:09:40.019Z,99.90
2018-09-03T17:12:10.527Z,99.90
2018-09-03T17:14:40.968Z,99.90
2018-09-03T17:17:11.569Z,99.90
2018-09-03T17:19:41.920Z,99.90
2018-09-03T17:22:12.490Z,99.90
2018-09-03T17:24:45.910Z,99.90
2018-09-03T17:27:16.295Z,99.90
2018-09-03T17:29:46.767Z,99.90
2018-09-03T17:32:17.531Z,99.90
2018-09-03T17:34:47.774Z,99.90
2018-09-03T17:37:18.214Z,99.90
2018-09-03T17:39:48.610Z,99.90
2018-09-03T17:42:19.188Z,99.90
2018-09-03T17:44:49.666Z,99.90
2018-09-03T17:47:20.045Z,99.90
2018-09-03T17:49:50.470Z,99.90
2018-09-03T17:52:20.721Z,99.90
2018-09-03T17:54:51.347Z,99.90
2018-09-03T17:57:21.959Z,99.90
2018-09-03T17:59:52.437Z,99.90
2018-09-03T18:02:22.802Z,99.90
2018-09-03T18:04:53.203Z,99.90
2018-09-03T18:07:23.668Z,99.90
2018-09-03T18:09:54.351Z,99.90
2018-09-03T18:12:24.655Z,99.90
2018-09-03T18:14:55.317Z,99.90
2018-09-03T18:17:25.824Z,99.90
2018-09-03T18:19:56.482Z,99.90
2018-09-03T18:22:27.108Z,99.90
2018-09-03T18:24:57.623Z,99.90
2018-09-03T18:27:28.309Z,99.90
2018-09-03T18:29:58.975Z,99.90
2018-09-03T18:32:29.562Z,99.90
2018-09-03T18:34:59.822Z,99.90
2018-09-03T18:37:30.474Z,99.90
2018-09-03T18:40:00.951Z,99.90
2018-09-03T18:42:31.622Z,99.90
2018-09-03T18:45:02.275Z,99.90
2018-09-03T18:47:32.828Z,99.90
2018-09-03T18:50:03.515Z,99.90
2018-09-03T18:52:34.203Z,99.90
2018-09-03T18:55:04.713Z,99.90
2018-09-03T18:57:35.441Z,99.90
2018-09-03T19:00:06.509Z,99.90
2018-09-03T19:02:37.049Z,99.90
2018-09-03T19:05:07.776Z,99.90
2018-09-03T19:07:38.515Z,99.90
2018-09-03T19:10:09.194Z,99.90
2018-09-03T19:12:39.961Z,99.90
2018-09-03T19:15:10.480Z,99.90
2018-09-03T19:17:42.163Z,99.90
2018-09-03T19:20:13.478Z,99.90
2018-09-03T19:22:44.345Z,99.90
2018-09-03T19:25:15.042Z,99.90
2018-09-03T19:27:45.687Z,99.90
2018-09-03T19:30:15.875Z,99.90
2018-09-03T19:32:52.862Z,99.90
2018-09-03T19:35:23.246Z,99.90
2018-09-03T19:37:53.674Z,99.90
2018-09-03T19:40:24.183Z,99.90
2018-09-03T19:42:54.747Z,99.90
2018-09-03T19:45:25.125Z,99.90
2018-09-03T19:47:55.795Z,99.90
2018-09-03T19:50:26.180Z,99.90
2018-09-03T19:52:56.643Z,99.90
2018-09-03T19:55:27.225Z,99.90
2018-09-03T19:57:57.855Z,99.90
2018-09-03T20:00:28.312Z,99.90
2018-09-03T20:02:58.979Z,99.90
2018-09-03T20:05:29.387Z,99.90
2018-09-03T20:07:59.825Z,99.90
2018-09-03T20:10:30.360Z,99.90
2018-09-03T20:13:00.790Z,99.90
2018-09-03T20:15:31.515Z,99.90
2018-09-03T20:18:02.056Z,99.90
2018-09-03T20:20:32.781Z,99.90
2018-09-03T20:23:03.071Z,99.90
2018-09-03T20:25:33.563Z,99.90
2018-09-03T20:28:04.151Z,99.90
2018-09-03T20:30:34.656Z,99.90
2018-09-03T20:33:05.355Z,99.90
2018-09-03T20:35:36.045Z,99.90
2018-09-03T20:38:06.403Z,99.90
2018-09-03T20:40:36.875Z,99.90
2018-09-03T20:43:07.333Z,99.90
2018-09-03T20:45:37.842Z,99.90
2018-09-03T20:48:08.467Z,99.90
2018-09-03T20:50:38.809Z,99.90
2018-09-03T20:53:09.255Z,99.90
2018-09-03T20:55:40.008Z,99.90
2018-09-03T20:58:10.616Z,99.90
2018-09-03T21:00:41.035Z,99.90
2018-09-03T21:03:11.550Z,99.90
2018-09-03T21:05:42.022Z,99.90
2018-09-03T21:08:12.372Z,99.90
2018-09-03T21:10:42.835Z,99.90
2018-09-03T21:13:13.480Z,99.90
2018-09-03T21:15:43.984Z,99.90
2018-09-03T21:18:17.111Z,99.90
2018-09-03T21:20:47.306Z,99.90
2018-09-03T21:23:17.758Z,99.90
2018-09-03T21:25:48.350Z,99.90
2018-09-03T21:28:19.506Z,99.90
2018-09-03T21:30:49.806Z,99.90
2018-09-03T21:33:20.307Z,99.90
2018-09-03T21:35:50.515Z,99.90
2018-09-03T21:38:27.735Z,99.90
2018-09-03T21:40:58.176Z,99.90
2018-09-03T21:43:28.624Z,99.90
2018-09-03T21:45:59.127Z,99.90
2018-09-03T21:48:29.572Z,99.90
2018-09-03T21:51:00.095Z,99.90
2018-09-03T21:53:30.326Z,99.90
2018-09-03T21:56:00.774Z,99.90
2018-09-03T21:58:31.160Z,99.90
2018-09-03T22:01:01.602Z,99.90
2018-09-03T22:03:32.099Z,99.90
2018-09-03T22:06:02.534Z,99.90
2018-09-03T22:08:32.957Z,99.90
2018-09-03T22:11:03.304Z,99.90
2018-09-03T22:13:33.637Z,99.90
2018-09-03T22:16:04.312Z,99.90
2018-09-03T22:18:34.785Z,99.90
2018-09-03T22:21:05.401Z,99.90
2018-09-03T22:23:35.926Z,99.90
2018-09-03T22:26:06.422Z,99.90
2018-09-03T22:28:36.953Z,99.90
2018-09-03T22:31:07.514Z,99.90
2018-09-03T22:33:37.854Z,99.90
2018-09-03T22:36:08.527Z,99.90
2018-09-03T22:38:38.935Z,99.90
2018-09-03T22:41:10.087Z,99.90
2018-09-03T22:43:40.505Z,99.90
2018-09-03T22:46:10.941Z,99.90
2018-09-03T22:48:41.313Z,99.90
2018-09-03T22:51:11.891Z,99.90
2018-09-03T22:53:45.325Z,99.90
2018-09-03T22:56:15.530Z,99.90
2018-09-03T22:58:45.949Z,99.90
2018-09-03T23:01:16.348Z,99.90
2018-09-03T23:03:46.607Z,99.90
2018-09-03T23:06:17.128Z,99.90
2018-09-03T23:08:47.494Z,99.90
2018-09-03T23:11:17.915Z,99.90
2018-09-03T23:13:48.545Z,99.90
2018-09-03T23:16:19.041Z,99.90
2018-09-03T23:18:49.675Z,99.90
2018-09-03T23:21:20.141Z,99.90
2018-09-03T23:23:50.459Z,99.90
2018-09-03T23:26:20.841Z,99.90
2018-09-03T23:28:51.268Z,99.90
2018-09-03T23:31:21.661Z,99.90
2018-09-03T23:33:52.021Z,99.90
2018-09-03T23:36:22.229Z,99.90
2018-09-03T23:38:52.773Z,99.90
2018-09-03T23:41:23.167Z,99.90
2018-09-03T23:43:53.466Z,99.90
2018-09-03T23:46:23.789Z,99.90
2018-09-03T23:48:54.208Z,99.90
2018-09-03T23:51:24.546Z,99.90
2018-09-03T23:53:55.031Z,99.90
2018-09-03T23:56:25.499Z,99.90
2018-09-03T23:58:55.984Z,99.90
